sensor_id;sensor_type;location;lat;lon;timestamp;P1;durP1;ratioP1;P2;durP2;ratioP2
64834;SDS011;51293;59.296;18.006;2022-08-19T00:01:46;28.33;;;14.48;;
64834;SDS011;51293;59.296;18.006;2022-08-19T00:04:13;26.17;;;14.75;;
64834;SDS011;51293;59.296;18.006;2022-08-19T00:06:42;27.90;;;16.00;;
64834;SDS011;51293;59.296;18.006;2022-08-19T00:09:09;28.58;;;15.80;;
64834;SDS011;51293;59.296;18.006;2022-08-19T00:11:38;25.50;;;14.82;;
64834;SDS011;51293;59.296;18.006;2022-08-19T00:14:05;23.85;;;15.50;;
64834;SDS011;51293;59.296;18.006;2022-08-19T00:16:33;26.45;;;15.63;;
64834;SDS011;51293;59.296;18.006;2022-08-19T00:18:59;31.52;;;16.67;;
64834;SDS011;51293;59.296;18.006;2022-08-19T00:21:25;29.95;;;16.23;;
64834;SDS011;51293;59.296;18.006;2022-08-19T00:23:51;26.27;;;15.48;;
64834;SDS011;51293;59.296;18.006;2022-08-19T00:26:17;26.67;;;16.00;;
64834;SDS011;51293;59.296;18.006;2022-08-19T00:28:43;24.95;;;15.70;;
64834;SDS011;51293;59.296;18.006;2022-08-19T00:31:09;31.77;;;15.80;;
64834;SDS011;51293;59.296;18.006;2022-08-19T00:33:35;26.65;;;15.50;;
64834;SDS011;51293;59.296;18.006;2022-08-19T00:36:01;26.20;;;15.95;;
64834;SDS011;51293;59.296;18.006;2022-08-19T00:38:29;24.33;;;15.32;;
64834;SDS011;51293;59.296;18.006;2022-08-19T00:40:55;27.13;;;15.80;;
64834;SDS011;51293;59.296;18.006;2022-08-19T00:43:22;30.75;;;15.98;;
64834;SDS011;51293;59.296;18.006;2022-08-19T00:45:50;24.65;;;15.57;;
64834;SDS011;51293;59.296;18.006;2022-08-19T00:48:16;29.10;;;15.75;;
64834;SDS011;51293;59.296;18.006;2022-08-19T00:50:43;28.35;;;15.45;;
64834;SDS011;51293;59.296;18.006;2022-08-19T00:53:10;31.00;;;15.38;;
64834;SDS011;51293;59.296;18.006;2022-08-19T00:55:39;27.85;;;15.85;;
64834;SDS011;51293;59.296;18.006;2022-08-19T00:58:12;25.90;;;15.48;;
64834;SDS011;51293;59.296;18.006;2022-08-19T01:00:40;24.17;;;15.15;;
64834;SDS011;51293;59.296;18.006;2022-08-19T01:03:07;24.58;;;15.27;;
64834;SDS011;51293;59.296;18.006;2022-08-19T01:05:35;28.10;;;16.25;;
64834;SDS011;51293;59.296;18.006;2022-08-19T01:08:02;24.15;;;14.60;;
64834;SDS011;51293;59.296;18.006;2022-08-19T01:10:31;24.90;;;14.98;;
64834;SDS011;51293;59.296;18.006;2022-08-19T01:13:00;23.38;;;14.07;;
64834;SDS011;51293;59.296;18.006;2022-08-19T01:15:32;26.35;;;14.98;;
64834;SDS011;51293;59.296;18.006;2022-08-19T01:18:05;26.90;;;15.63;;
64834;SDS011;51293;59.296;18.006;2022-08-19T01:20:33;28.13;;;14.93;;
64834;SDS011;51293;59.296;18.006;2022-08-19T01:22:59;25.48;;;14.85;;
64834;SDS011;51293;59.296;18.006;2022-08-19T01:25:38;25.38;;;15.20;;
64834;SDS011;51293;59.296;18.006;2022-08-19T01:28:06;22.73;;;14.48;;
64834;SDS011;51293;59.296;18.006;2022-08-19T01:30:34;23.73;;;14.60;;
64834;SDS011;51293;59.296;18.006;2022-08-19T01:33:00;22.70;;;15.23;;
64834;SDS011;51293;59.296;18.006;2022-08-19T01:35:28;27.55;;;15.65;;
64834;SDS011;51293;59.296;18.006;2022-08-19T01:37:59;26.05;;;15.48;;
64834;SDS011;51293;59.296;18.006;2022-08-19T01:40:28;23.80;;;15.23;;
64834;SDS011;51293;59.296;18.006;2022-08-19T01:42:56;25.42;;;15.52;;
64834;SDS011;51293;59.296;18.006;2022-08-19T01:45:23;22.63;;;14.95;;
64834;SDS011;51293;59.296;18.006;2022-08-19T01:47:50;24.30;;;15.25;;
64834;SDS011;51293;59.296;18.006;2022-08-19T01:50:16;25.80;;;15.52;;
64834;SDS011;51293;59.296;18.006;2022-08-19T01:52:42;24.67;;;15.35;;
64834;SDS011;51293;59.296;18.006;2022-08-19T01:55:10;24.67;;;15.77;;
64834;SDS011;51293;59.296;18.006;2022-08-19T01:57:38;24.30;;;16.02;;
64834;SDS011;51293;59.296;18.006;2022-08-19T02:00:07;28.63;;;15.70;;
64834;SDS011;51293;59.296;18.006;2022-08-19T02:02:35;22.25;;;14.82;;
64834;SDS011;51293;59.296;18.006;2022-08-19T02:05:00;27.10;;;17.15;;
64834;SDS011;51293;59.296;18.006;2022-08-19T02:07:26;26.58;;;16.38;;
64834;SDS011;51293;59.296;18.006;2022-08-19T02:09:53;26.48;;;16.25;;
64834;SDS011;51293;59.296;18.006;2022-08-19T02:12:19;25.73;;;16.70;;
64834;SDS011;51293;59.296;18.006;2022-08-19T02:14:45;30.40;;;17.63;;
64834;SDS011;51293;59.296;18.006;2022-08-19T02:17:11;30.35;;;17.67;;
64834;SDS011;51293;59.296;18.006;2022-08-19T02:19:36;29.55;;;16.63;;
64834;SDS011;51293;59.296;18.006;2022-08-19T02:22:02;28.00;;;17.00;;
64834;SDS011;51293;59.296;18.006;2022-08-19T02:24:27;31.25;;;17.80;;
64834;SDS011;51293;59.296;18.006;2022-08-19T02:26:53;38.30;;;17.27;;
64834;SDS011;51293;59.296;18.006;2022-08-19T02:29:19;27.55;;;16.90;;
64834;SDS011;51293;59.296;18.006;2022-08-19T02:31:44;30.38;;;17.20;;
64834;SDS011;51293;59.296;18.006;2022-08-19T02:34:10;31.30;;;18.00;;
64834;SDS011;51293;59.296;18.006;2022-08-19T02:36:35;29.02;;;17.38;;
64834;SDS011;51293;59.296;18.006;2022-08-19T02:39:01;29.40;;;18.05;;
64834;SDS011;51293;59.296;18.006;2022-08-19T02:41:29;32.47;;;18.58;;
64834;SDS011;51293;59.296;18.006;2022-08-19T02:43:58;31.00;;;18.00;;
64834;SDS011;51293;59.296;18.006;2022-08-19T02:46:27;32.28;;;17.60;;
64834;SDS011;51293;59.296;18.006;2022-08-19T02:48:55;32.60;;;17.92;;
64834;SDS011;51293;59.296;18.006;2022-08-19T02:51:26;33.25;;;18.52;;
64834;SDS011;51293;59.296;18.006;2022-08-19T02:53:53;28.75;;;17.10;;
64834;SDS011;51293;59.296;18.006;2022-08-19T02:56:19;28.98;;;18.08;;
64834;SDS011;51293;59.296;18.006;2022-08-19T02:58:45;31.35;;;18.50;;
64834;SDS011;51293;59.296;18.006;2022-08-19T03:01:18;31.10;;;17.77;;
64834;SDS011;51293;59.296;18.006;2022-08-19T03:03:46;28.50;;;17.90;;
64834;SDS011;51293;59.296;18.006;2022-08-19T03:06:12;31.88;;;18.00;;
64834;SDS011;51293;59.296;18.006;2022-08-19T03:08:41;31.90;;;17.52;;
64834;SDS011;51293;59.296;18.006;2022-08-19T03:11:12;32.58;;;18.85;;
64834;SDS011;51293;59.296;18.006;2022-08-19T03:13:39;31.73;;;18.60;;
64834;SDS011;51293;59.296;18.006;2022-08-19T03:16:04;26.20;;;17.77;;
64834;SDS011;51293;59.296;18.006;2022-08-19T03:18:30;29.45;;;18.73;;
64834;SDS011;51293;59.296;18.006;2022-08-19T03:20:56;27.50;;;17.77;;
64834;SDS011;51293;59.296;18.006;2022-08-19T03:23:21;32.10;;;18.08;;
64834;SDS011;51293;59.296;18.006;2022-08-19T03:25:49;27.55;;;18.17;;
64834;SDS011;51293;59.296;18.006;2022-08-19T03:28:16;30.42;;;18.10;;
64834;SDS011;51293;59.296;18.006;2022-08-19T03:30:42;31.50;;;17.92;;
64834;SDS011;51293;59.296;18.006;2022-08-19T03:33:21;29.08;;;17.95;;
64834;SDS011;51293;59.296;18.006;2022-08-19T03:35:46;26.85;;;17.83;;
64834;SDS011;51293;59.296;18.006;2022-08-19T03:38:12;29.70;;;17.92;;
64834;SDS011;51293;59.296;18.006;2022-08-19T03:40:37;27.00;;;17.48;;
64834;SDS011;51293;59.296;18.006;2022-08-19T03:43:03;29.60;;;18.02;;
64834;SDS011;51293;59.296;18.006;2022-08-19T03:45:28;31.77;;;17.45;;
64834;SDS011;51293;59.296;18.006;2022-08-19T03:47:54;29.70;;;17.52;;
64834;SDS011;51293;59.296;18.006;2022-08-19T03:50:20;28.13;;;16.77;;
64834;SDS011;51293;59.296;18.006;2022-08-19T03:52:49;29.60;;;17.60;;
64834;SDS011;51293;59.296;18.006;2022-08-19T03:55:17;25.95;;;17.10;;
64834;SDS011;51293;59.296;18.006;2022-08-19T03:57:43;28.75;;;17.50;;
64834;SDS011;51293;59.296;18.006;2022-08-19T04:00:10;29.60;;;17.70;;
64834;SDS011;51293;59.296;18.006;2022-08-19T04:02:36;28.23;;;17.80;;
64834;SDS011;51293;59.296;18.006;2022-08-19T04:05:01;33.17;;;17.83;;
64834;SDS011;51293;59.296;18.006;2022-08-19T04:07:27;31.95;;;17.85;;
64834;SDS011;51293;59.296;18.006;2022-08-19T04:09:52;29.05;;;18.40;;
64834;SDS011;51293;59.296;18.006;2022-08-19T04:12:18;32.47;;;18.73;;
64834;SDS011;51293;59.296;18.006;2022-08-19T04:14:45;28.70;;;18.25;;
64834;SDS011;51293;59.296;18.006;2022-08-19T04:17:11;33.35;;;19.20;;
64834;SDS011;51293;59.296;18.006;2022-08-19T04:19:39;29.08;;;18.25;;
64834;SDS011;51293;59.296;18.006;2022-08-19T04:22:05;30.92;;;19.30;;
64834;SDS011;51293;59.296;18.006;2022-08-19T04:24:32;36.75;;;19.90;;
64834;SDS011;51293;59.296;18.006;2022-08-19T04:26:59;32.20;;;20.25;;
64834;SDS011;51293;59.296;18.006;2022-08-19T04:29:25;37.38;;;20.88;;
64834;SDS011;51293;59.296;18.006;2022-08-19T04:31:52;30.23;;;19.35;;
64834;SDS011;51293;59.296;18.006;2022-08-19T04:34:19;38.45;;;20.65;;
64834;SDS011;51293;59.296;18.006;2022-08-19T04:36:47;35.38;;;19.50;;
64834;SDS011;51293;59.296;18.006;2022-08-19T04:39:16;31.00;;;19.88;;
64834;SDS011;51293;59.296;18.006;2022-08-19T04:41:44;38.17;;;19.73;;
64834;SDS011;51293;59.296;18.006;2022-08-19T04:44:30;33.85;;;19.75;;
64834;SDS011;51293;59.296;18.006;2022-08-19T04:46:57;33.70;;;19.92;;
64834;SDS011;51293;59.296;18.006;2022-08-19T04:49:23;36.05;;;20.17;;
64834;SDS011;51293;59.296;18.006;2022-08-19T04:51:50;32.53;;;19.45;;
64834;SDS011;51293;59.296;18.006;2022-08-19T04:54:19;34.33;;;20.48;;
64834;SDS011;51293;59.296;18.006;2022-08-19T04:56:47;34.33;;;20.33;;
64834;SDS011;51293;59.296;18.006;2022-08-19T04:59:14;36.55;;;20.27;;
64834;SDS011;51293;59.296;18.006;2022-08-19T05:01:42;32.03;;;20.50;;
64834;SDS011;51293;59.296;18.006;2022-08-19T05:04:08;32.80;;;19.75;;
64834;SDS011;51293;59.296;18.006;2022-08-19T05:06:34;38.15;;;20.48;;
64834;SDS011;51293;59.296;18.006;2022-08-19T05:09:01;34.70;;;20.30;;
64834;SDS011;51293;59.296;18.006;2022-08-19T05:11:33;35.75;;;19.02;;
64834;SDS011;51293;59.296;18.006;2022-08-19T05:14:01;29.23;;;18.50;;
64834;SDS011;51293;59.296;18.006;2022-08-19T05:16:27;29.30;;;18.20;;
64834;SDS011;51293;59.296;18.006;2022-08-19T05:18:52;34.33;;;18.35;;
64834;SDS011;51293;59.296;18.006;2022-08-19T05:21:38;31.23;;;18.02;;
64834;SDS011;51293;59.296;18.006;2022-08-19T05:24:23;27.08;;;17.40;;
64834;SDS011;51293;59.296;18.006;2022-08-19T05:26:50;30.73;;;18.00;;
64834;SDS011;51293;59.296;18.006;2022-08-19T05:29:20;34.28;;;17.55;;
64834;SDS011;51293;59.296;18.006;2022-08-19T05:31:46;29.80;;;17.83;;
64834;SDS011;51293;59.296;18.006;2022-08-19T05:34:14;27.73;;;17.63;;
64834;SDS011;51293;59.296;18.006;2022-08-19T05:36:41;30.33;;;17.45;;
64834;SDS011;51293;59.296;18.006;2022-08-19T05:39:10;32.65;;;17.40;;
64834;SDS011;51293;59.296;18.006;2022-08-19T05:41:42;27.00;;;17.33;;
64834;SDS011;51293;59.296;18.006;2022-08-19T05:44:09;25.80;;;16.85;;
64834;SDS011;51293;59.296;18.006;2022-08-19T05:46:35;26.00;;;14.75;;
64834;SDS011;51293;59.296;18.006;2022-08-19T05:49:03;26.02;;;15.10;;
64834;SDS011;51293;59.296;18.006;2022-08-19T05:51:30;21.02;;;14.13;;
64834;SDS011;51293;59.296;18.006;2022-08-19T05:53:57;20.88;;;13.75;;
64834;SDS011;51293;59.296;18.006;2022-08-19T05:56:23;21.27;;;12.95;;
64834;SDS011;51293;59.296;18.006;2022-08-19T05:58:49;24.08;;;13.00;;
64834;SDS011;51293;59.296;18.006;2022-08-19T06:01:15;20.58;;;12.57;;
64834;SDS011;51293;59.296;18.006;2022-08-19T06:03:42;18.45;;;11.90;;
64834;SDS011;51293;59.296;18.006;2022-08-19T06:06:08;20.50;;;12.18;;
64834;SDS011;51293;59.296;18.006;2022-08-19T06:08:36;18.55;;;11.88;;
64834;SDS011;51293;59.296;18.006;2022-08-19T06:11:13;17.00;;;11.57;;
64834;SDS011;51293;59.296;18.006;2022-08-19T06:13:39;18.38;;;11.50;;
64834;SDS011;51293;59.296;18.006;2022-08-19T06:16:04;16.65;;;11.35;;
64834;SDS011;51293;59.296;18.006;2022-08-19T06:18:30;18.27;;;11.15;;
64834;SDS011;51293;59.296;18.006;2022-08-19T06:20:55;16.10;;;10.15;;
64834;SDS011;51293;59.296;18.006;2022-08-19T06:23:20;18.33;;;11.00;;
64834;SDS011;51293;59.296;18.006;2022-08-19T06:25:46;22.85;;;11.82;;
64834;SDS011;51293;59.296;18.006;2022-08-19T06:28:12;19.17;;;11.60;;
64834;SDS011;51293;59.296;18.006;2022-08-19T06:30:37;20.05;;;10.20;;
64834;SDS011;51293;59.296;18.006;2022-08-19T06:33:03;18.55;;;10.40;;
64834;SDS011;51293;59.296;18.006;2022-08-19T06:35:28;13.98;;;9.60;;
64834;SDS011;51293;59.296;18.006;2022-08-19T06:37:54;19.73;;;9.20;;
64834;SDS011;51293;59.296;18.006;2022-08-19T06:40:20;12.73;;;9.30;;
64834;SDS011;51293;59.296;18.006;2022-08-19T06:42:46;16.23;;;9.02;;
64834;SDS011;51293;59.296;18.006;2022-08-19T06:45:11;12.52;;;8.73;;
64834;SDS011;51293;59.296;18.006;2022-08-19T06:47:36;15.98;;;8.23;;
64834;SDS011;51293;59.296;18.006;2022-08-19T06:50:02;14.85;;;8.63;;
64834;SDS011;51293;59.296;18.006;2022-08-19T06:52:29;11.52;;;7.85;;
64834;SDS011;51293;59.296;18.006;2022-08-19T06:54:56;17.10;;;7.53;;
64834;SDS011;51293;59.296;18.006;2022-08-19T06:57:21;13.70;;;7.70;;
64834;SDS011;51293;59.296;18.006;2022-08-19T06:59:47;15.32;;;7.10;;
64834;SDS011;51293;59.296;18.006;2022-08-19T07:02:13;15.18;;;7.55;;
64834;SDS011;51293;59.296;18.006;2022-08-19T07:04:38;12.55;;;7.13;;
64834;SDS011;51293;59.296;18.006;2022-08-19T07:07:05;14.30;;;7.60;;
64834;SDS011;51293;59.296;18.006;2022-08-19T07:09:34;13.98;;;7.43;;
64834;SDS011;51293;59.296;18.006;2022-08-19T07:12:02;13.13;;;6.70;;
64834;SDS011;51293;59.296;18.006;2022-08-19T07:14:29;11.85;;;7.13;;
64834;SDS011;51293;59.296;18.006;2022-08-19T07:16:55;13.30;;;7.30;;
64834;SDS011;51293;59.296;18.006;2022-08-19T07:19:22;12.63;;;7.65;;
64834;SDS011;51293;59.296;18.006;2022-08-19T07:21:51;13.85;;;6.88;;
64834;SDS011;51293;59.296;18.006;2022-08-19T07:24:18;12.10;;;6.95;;
64834;SDS011;51293;59.296;18.006;2022-08-19T07:26:45;16.52;;;7.20;;
64834;SDS011;51293;59.296;18.006;2022-08-19T07:29:12;12.93;;;6.80;;
64834;SDS011;51293;59.296;18.006;2022-08-19T07:31:38;9.75;;;6.53;;
64834;SDS011;51293;59.296;18.006;2022-08-19T07:34:04;15.68;;;6.78;;
64834;SDS011;51293;59.296;18.006;2022-08-19T07:36:33;12.15;;;7.15;;
64834;SDS011;51293;59.296;18.006;2022-08-19T07:39:04;13.18;;;7.47;;
64834;SDS011;51293;59.296;18.006;2022-08-19T07:41:34;12.98;;;6.88;;
64834;SDS011;51293;59.296;18.006;2022-08-19T07:44:00;11.70;;;7.32;;
64834;SDS011;51293;59.296;18.006;2022-08-19T07:46:28;12.15;;;6.75;;
64834;SDS011;51293;59.296;18.006;2022-08-19T07:48:58;15.85;;;6.72;;
64834;SDS011;51293;59.296;18.006;2022-08-19T07:51:23;11.35;;;6.43;;
64834;SDS011;51293;59.296;18.006;2022-08-19T07:53:49;13.68;;;6.40;;
64834;SDS011;51293;59.296;18.006;2022-08-19T07:56:18;13.20;;;7.20;;
64834;SDS011;51293;59.296;18.006;2022-08-19T07:58:45;15.00;;;6.40;;
64834;SDS011;51293;59.296;18.006;2022-08-19T08:01:13;13.15;;;6.63;;
64834;SDS011;51293;59.296;18.006;2022-08-19T08:03:41;14.10;;;6.05;;
64834;SDS011;51293;59.296;18.006;2022-08-19T08:06:25;13.88;;;6.00;;
64834;SDS011;51293;59.296;18.006;2022-08-19T08:09:10;10.05;;;5.80;;
64834;SDS011;51293;59.296;18.006;2022-08-19T08:11:44;11.10;;;5.93;;
64834;SDS011;51293;59.296;18.006;2022-08-19T08:14:16;15.05;;;5.97;;
64834;SDS011;51293;59.296;18.006;2022-08-19T08:16:44;11.23;;;5.60;;
64834;SDS011;51293;59.296;18.006;2022-08-19T08:19:10;9.48;;;6.18;;
64834;SDS011;51293;59.296;18.006;2022-08-19T08:21:36;10.70;;;5.82;;
64834;SDS011;51293;59.296;18.006;2022-08-19T08:24:02;11.45;;;5.72;;
64834;SDS011;51293;59.296;18.006;2022-08-19T08:26:28;11.98;;;5.90;;
64834;SDS011;51293;59.296;18.006;2022-08-19T08:28:53;9.35;;;5.40;;
64834;SDS011;51293;59.296;18.006;2022-08-19T08:31:19;13.65;;;5.30;;
64834;SDS011;51293;59.296;18.006;2022-08-19T08:33:45;11.82;;;5.30;;
64834;SDS011;51293;59.296;18.006;2022-08-19T08:36:12;11.55;;;5.78;;
64834;SDS011;51293;59.296;18.006;2022-08-19T08:38:39;19.00;;;5.60;;
64834;SDS011;51293;59.296;18.006;2022-08-19T08:41:08;12.70;;;5.30;;
64834;SDS011;51293;59.296;18.006;2022-08-19T08:43:54;11.15;;;5.45;;
64834;SDS011;51293;59.296;18.006;2022-08-19T08:54:39;10.10;;;4.85;;
64834;SDS011;51293;59.296;18.006;2022-08-19T08:57:10;11.55;;;5.13;;
64834;SDS011;51293;59.296;18.006;2022-08-19T08:59:40;10.05;;;5.00;;
64834;SDS011;51293;59.296;18.006;2022-08-19T09:02:08;11.50;;;4.70;;
64834;SDS011;51293;59.296;18.006;2022-08-19T09:04:35;13.32;;;4.72;;
64834;SDS011;51293;59.296;18.006;2022-08-19T09:07:12;17.95;;;5.07;;
64834;SDS011;51293;59.296;18.006;2022-08-19T09:09:48;12.48;;;4.57;;
64834;SDS011;51293;59.296;18.006;2022-08-19T09:15:17;9.20;;;4.57;;
64834;SDS011;51293;59.296;18.006;2022-08-19T09:17:49;21.90;;;4.85;;
64834;SDS011;51293;59.296;18.006;2022-08-19T09:20:18;10.73;;;4.20;;
64834;SDS011;51293;59.296;18.006;2022-08-19T09:22:46;9.65;;;4.43;;
64834;SDS011;51293;59.296;18.006;2022-08-19T09:25:16;9.23;;;4.55;;
64834;SDS011;51293;59.296;18.006;2022-08-19T09:27:43;8.98;;;4.43;;
64834;SDS011;51293;59.296;18.006;2022-08-19T09:30:11;13.32;;;4.53;;
64834;SDS011;51293;59.296;18.006;2022-08-19T09:35:08;8.73;;;4.18;;
64834;SDS011;51293;59.296;18.006;2022-08-19T09:37:33;9.35;;;4.43;;
64834;SDS011;51293;59.296;18.006;2022-08-19T09:39:59;10.93;;;4.97;;
64834;SDS011;51293;59.296;18.006;2022-08-19T09:42:25;13.63;;;4.93;;
64834;SDS011;51293;59.296;18.006;2022-08-19T09:44:50;11.77;;;4.63;;
64834;SDS011;51293;59.296;18.006;2022-08-19T09:47:15;8.90;;;4.55;;
64834;SDS011;51293;59.296;18.006;2022-08-19T09:49:41;9.45;;;4.97;;
64834;SDS011;51293;59.296;18.006;2022-08-19T09:52:10;8.90;;;4.70;;
64834;SDS011;51293;59.296;18.006;2022-08-19T09:54:37;9.43;;;4.85;;
64834;SDS011;51293;59.296;18.006;2022-08-19T09:57:03;7.57;;;4.55;;
64834;SDS011;51293;59.296;18.006;2022-08-19T09:59:29;13.23;;;4.65;;
64834;SDS011;51293;59.296;18.006;2022-08-19T10:01:55;12.90;;;4.78;;
64834;SDS011;51293;59.296;18.006;2022-08-19T10:04:21;13.27;;;4.80;;
64834;SDS011;51293;59.296;18.006;2022-08-19T10:06:47;10.13;;;4.47;;
64834;SDS011;51293;59.296;18.006;2022-08-19T10:09:15;10.88;;;4.47;;
64834;SDS011;51293;59.296;18.006;2022-08-19T10:11:44;7.10;;;4.60;;
64834;SDS011;51293;59.296;18.006;2022-08-19T10:14:14;16.75;;;4.88;;
64834;SDS011;51293;59.296;18.006;2022-08-19T10:16:41;8.27;;;4.60;;
64834;SDS011;51293;59.296;18.006;2022-08-19T10:19:08;12.13;;;4.70;;
64834;SDS011;51293;59.296;18.006;2022-08-19T10:21:34;8.48;;;4.60;;
64834;SDS011;51293;59.296;18.006;2022-08-19T10:24:01;13.95;;;4.43;;
64834;SDS011;51293;59.296;18.006;2022-08-19T10:26:36;12.68;;;4.75;;
64834;SDS011;51293;59.296;18.006;2022-08-19T10:29:04;9.80;;;4.30;;
64834;SDS011;51293;59.296;18.006;2022-08-19T10:31:31;9.50;;;4.70;;
64834;SDS011;51293;59.296;18.006;2022-08-19T10:33:58;10.18;;;4.50;;
64834;SDS011;51293;59.296;18.006;2022-08-19T10:36:25;10.63;;;4.80;;
64834;SDS011;51293;59.296;18.006;2022-08-19T10:38:53;12.23;;;4.55;;
64834;SDS011;51293;59.296;18.006;2022-08-19T10:41:23;7.30;;;4.22;;
64834;SDS011;51293;59.296;18.006;2022-08-19T10:43:56;8.60;;;4.43;;
64834;SDS011;51293;59.296;18.006;2022-08-19T10:46:24;10.98;;;4.82;;
64834;SDS011;51293;59.296;18.006;2022-08-19T10:48:52;7.78;;;4.25;;
64834;SDS011;51293;59.296;18.006;2022-08-19T10:51:18;9.68;;;4.30;;
64834;SDS011;51293;59.296;18.006;2022-08-19T10:54:03;7.47;;;4.18;;
64834;SDS011;51293;59.296;18.006;2022-08-19T10:56:29;7.35;;;4.13;;
64834;SDS011;51293;59.296;18.006;2022-08-19T10:59:13;7.68;;;3.80;;
64834;SDS011;51293;59.296;18.006;2022-08-19T11:01:41;7.28;;;4.00;;
64834;SDS011;51293;59.296;18.006;2022-08-19T11:04:08;7.93;;;4.15;;
64834;SDS011;51293;59.296;18.006;2022-08-19T11:06:38;8.77;;;4.18;;
64834;SDS011;51293;59.296;18.006;2022-08-19T11:09:05;13.05;;;4.45;;
64834;SDS011;51293;59.296;18.006;2022-08-19T11:11:31;10.65;;;4.30;;
64834;SDS011;51293;59.296;18.006;2022-08-19T11:13:57;6.75;;;3.72;;
64834;SDS011;51293;59.296;18.006;2022-08-19T11:16:24;10.68;;;4.00;;
64834;SDS011;51293;59.296;18.006;2022-08-19T11:18:56;9.15;;;4.00;;
64834;SDS011;51293;59.296;18.006;2022-08-19T11:21:30;9.20;;;3.88;;
64834;SDS011;51293;59.296;18.006;2022-08-19T11:24:00;10.27;;;4.13;;
64834;SDS011;51293;59.296;18.006;2022-08-19T11:26:28;8.48;;;4.47;;
64834;SDS011;51293;59.296;18.006;2022-08-19T11:28:56;8.73;;;4.07;;
64834;SDS011;51293;59.296;18.006;2022-08-19T11:31:24;9.65;;;4.20;;
64834;SDS011;51293;59.296;18.006;2022-08-19T11:33:51;8.30;;;4.03;;
64834;SDS011;51293;59.296;18.006;2022-08-19T11:36:18;7.03;;;3.80;;
64834;SDS011;51293;59.296;18.006;2022-08-19T11:38:46;9.68;;;3.85;;
64834;SDS011;51293;59.296;18.006;2022-08-19T11:41:13;13.55;;;4.15;;
64834;SDS011;51293;59.296;18.006;2022-08-19T11:43:40;11.40;;;3.75;;
64834;SDS011;51293;59.296;18.006;2022-08-19T11:46:06;4.97;;;3.65;;
64834;SDS011;51293;59.296;18.006;2022-08-19T11:48:33;12.50;;;4.10;;
64834;SDS011;51293;59.296;18.006;2022-08-19T11:51:02;9.13;;;3.83;;
64834;SDS011;51293;59.296;18.006;2022-08-19T11:53:31;8.50;;;4.18;;
64834;SDS011;51293;59.296;18.006;2022-08-19T11:55:57;11.85;;;4.22;;
64834;SDS011;51293;59.296;18.006;2022-08-19T11:58:22;14.02;;;4.20;;
64834;SDS011;51293;59.296;18.006;2022-08-19T12:00:48;7.72;;;3.95;;
64834;SDS011;51293;59.296;18.006;2022-08-19T12:03:13;9.00;;;3.60;;
64834;SDS011;51293;59.296;18.006;2022-08-19T12:05:39;13.90;;;3.80;;
64834;SDS011;51293;59.296;18.006;2022-08-19T12:08:06;9.60;;;3.83;;
64834;SDS011;51293;59.296;18.006;2022-08-19T12:10:32;12.18;;;4.03;;
64834;SDS011;51293;59.296;18.006;2022-08-19T12:12:59;6.53;;;4.00;;
64834;SDS011;51293;59.296;18.006;2022-08-19T12:15:25;10.80;;;4.20;;
64834;SDS011;51293;59.296;18.006;2022-08-19T12:17:52;12.20;;;4.00;;
64834;SDS011;51293;59.296;18.006;2022-08-19T12:20:20;8.07;;;3.75;;
64834;SDS011;51293;59.296;18.006;2022-08-19T12:22:45;9.43;;;3.78;;
64834;SDS011;51293;59.296;18.006;2022-08-19T12:25:11;6.45;;;3.95;;
64834;SDS011;51293;59.296;18.006;2022-08-19T12:27:37;12.82;;;3.90;;
64834;SDS011;51293;59.296;18.006;2022-08-19T12:30:04;12.27;;;4.00;;
64834;SDS011;51293;59.296;18.006;2022-08-19T12:32:32;8.25;;;3.60;;
64834;SDS011;51293;59.296;18.006;2022-08-19T12:34:57;8.00;;;3.80;;
64834;SDS011;51293;59.296;18.006;2022-08-19T12:37:23;15.18;;;4.15;;
64834;SDS011;51293;59.296;18.006;2022-08-19T12:39:48;9.73;;;4.10;;
64834;SDS011;51293;59.296;18.006;2022-08-19T12:42:13;12.50;;;4.38;;
64834;SDS011;51293;59.296;18.006;2022-08-19T12:44:40;9.55;;;4.20;;
64834;SDS011;51293;59.296;18.006;2022-08-19T12:47:07;7.28;;;3.60;;
64834;SDS011;51293;59.296;18.006;2022-08-19T12:49:34;13.43;;;4.00;;
64834;SDS011;51293;59.296;18.006;2022-08-19T12:52:02;11.45;;;3.60;;
64834;SDS011;51293;59.296;18.006;2022-08-19T12:54:29;9.15;;;3.75;;
64834;SDS011;51293;59.296;18.006;2022-08-19T12:56:55;8.15;;;3.90;;
64834;SDS011;51293;59.296;18.006;2022-08-19T12:59:24;11.30;;;3.78;;
64834;SDS011;51293;59.296;18.006;2022-08-19T13:01:50;7.90;;;3.70;;
64834;SDS011;51293;59.296;18.006;2022-08-19T13:04:15;9.55;;;3.63;;
64834;SDS011;51293;59.296;18.006;2022-08-19T13:06:41;8.07;;;3.70;;
64834;SDS011;51293;59.296;18.006;2022-08-19T13:09:07;6.75;;;4.03;;
64834;SDS011;51293;59.296;18.006;2022-08-19T13:11:32;10.23;;;3.90;;
64834;SDS011;51293;59.296;18.006;2022-08-19T13:13:58;13.27;;;3.90;;
64834;SDS011;51293;59.296;18.006;2022-08-19T13:16:24;7.80;;;3.92;;
64834;SDS011;51293;59.296;18.006;2022-08-19T13:18:50;12.02;;;4.40;;
64834;SDS011;51293;59.296;18.006;2022-08-19T13:21:19;11.57;;;4.13;;
64834;SDS011;51293;59.296;18.006;2022-08-19T13:23:47;7.18;;;3.60;;
64834;SDS011;51293;59.296;18.006;2022-08-19T13:26:13;9.70;;;4.20;;
64834;SDS011;51293;59.296;18.006;2022-08-19T13:28:39;11.32;;;4.25;;
64834;SDS011;51293;59.296;18.006;2022-08-19T13:31:25;14.13;;;4.05;;
64834;SDS011;51293;59.296;18.006;2022-08-19T13:34:10;14.50;;;4.20;;
64834;SDS011;51293;59.296;18.006;2022-08-19T13:36:37;8.85;;;4.10;;
64834;SDS011;51293;59.296;18.006;2022-08-19T13:39:03;13.07;;;4.20;;
64834;SDS011;51293;59.296;18.006;2022-08-19T13:41:30;12.20;;;4.60;;
64834;SDS011;51293;59.296;18.006;2022-08-19T13:43:55;8.57;;;4.10;;
64834;SDS011;51293;59.296;18.006;2022-08-19T13:46:21;9.77;;;4.18;;
64834;SDS011;51293;59.296;18.006;2022-08-19T13:48:47;11.38;;;4.47;;
64834;SDS011;51293;59.296;18.006;2022-08-19T13:51:13;10.63;;;4.65;;
64834;SDS011;51293;59.296;18.006;2022-08-19T13:53:41;8.98;;;4.80;;
64834;SDS011;51293;59.296;18.006;2022-08-19T13:56:08;15.00;;;4.97;;
64834;SDS011;51293;59.296;18.006;2022-08-19T13:58:36;15.05;;;4.97;;
64834;SDS011;51293;59.296;18.006;2022-08-19T14:01:02;15.27;;;4.47;;
64834;SDS011;51293;59.296;18.006;2022-08-19T14:03:29;12.13;;;4.43;;
64834;SDS011;51293;59.296;18.006;2022-08-19T14:05:55;10.02;;;4.30;;
64834;SDS011;51293;59.296;18.006;2022-08-19T14:08:21;12.73;;;4.38;;
64834;SDS011;51293;59.296;18.006;2022-08-19T14:10:46;12.18;;;4.90;;
64834;SDS011;51293;59.296;18.006;2022-08-19T14:13:14;7.85;;;4.25;;
64834;SDS011;51293;59.296;18.006;2022-08-19T14:15:42;10.00;;;4.20;;
64834;SDS011;51293;59.296;18.006;2022-08-19T14:18:08;17.83;;;4.43;;
64834;SDS011;51293;59.296;18.006;2022-08-19T14:20:34;17.83;;;4.50;;
64834;SDS011;51293;59.296;18.006;2022-08-19T14:23:00;13.27;;;4.30;;
64834;SDS011;51293;59.296;18.006;2022-08-19T14:25:26;8.75;;;4.32;;
64834;SDS011;51293;59.296;18.006;2022-08-19T14:27:54;11.95;;;4.35;;
64834;SDS011;51293;59.296;18.006;2022-08-19T14:30:22;11.00;;;4.18;;
64834;SDS011;51293;59.296;18.006;2022-08-19T14:32:52;9.60;;;4.70;;
64834;SDS011;51293;59.296;18.006;2022-08-19T14:35:19;9.38;;;4.70;;